Terminal Aerodrome Forecast
Issued by NWS

Home | Current Version | Previous Version | Graphics & Text | Print | Product List | Glossary On
Versions: 1 2 3 4 5 6 7 8 9 10 11 12 13 14 15 16 17 18 19 20 21
000
FTUS43 KABR 221300 AAA
TAFPIR
TAF AMD
KPIR 221310Z 2213/2312 VRB05KT P6SM SKC
      TEMPO 2213/2215 1/2SM FZFG VV002
     FM221500 22007KT P6SM OVC250
     FM230300 30010KT P6SM OVC100
     FM230900 30016G23KT P6SM OVC250=

USA.gov is the U.S. government's official web portal to all federal, state and local government web resources and services.